createdAt,value
2022-07-25T00:04:44.759Z,54.9
2022-07-25T00:09:44.908Z,55.0
2022-07-25T00:14:44.699Z,55.1
2022-07-25T00:19:44.805Z,55.2
2022-07-25T00:24:44.541Z,55.5
2022-07-25T00:29:44.662Z,55.8
2022-07-25T00:34:44.816Z,56.1
2022-07-25T00:39:44.533Z,56.2
2022-07-25T00:44:44.885Z,56.4
2022-07-25T00:49:44.643Z,56.5
2022-07-25T00:54:44.864Z,56.6
2022-07-25T00:59:44.577Z,56.8
2022-07-25T01:04:44.608Z,57.1
2022-07-25T01:09:44.602Z,57.2
2022-07-25T01:14:44.658Z,57.4
2022-07-25T01:19:44.593Z,57.5
2022-07-25T01:24:44.631Z,57.7
2022-07-25T01:29:44.603Z,57.9
2022-07-25T01:34:44.431Z,58.1
2022-07-25T01:39:44.651Z,58.4
2022-07-25T01:44:44.523Z,58.5
2022-07-25T01:49:44.447Z,58.7
2022-07-25T01:54:44.456Z,58.9
2022-07-25T01:59:44.632Z,59.2
2022-07-25T02:04:44.541Z,59.3
2022-07-25T02:09:44.392Z,59.4
2022-07-25T02:14:44.605Z,59.4
2022-07-25T02:19:44.349Z,59.6
2022-07-25T02:24:44.494Z,59.8
2022-07-25T02:29:44.507Z,60.0
2022-07-25T02:34:44.668Z,60.1
2022-07-25T02:39:44.308Z,60.3
2022-07-25T02:44:44.537Z,60.4
2022-07-25T02:49:44.453Z,60.6
2022-07-25T02:54:44.424Z,60.7
2022-07-25T02:59:44.260Z,60.9
2022-07-25T03:04:44.436Z,61.1
2022-07-25T03:09:45.634Z,61.1
2022-07-25T03:14:44.239Z,61.3
2022-07-25T03:19:44.449Z,61.4
2022-07-25T03:24:44.288Z,61.5
2022-07-25T03:29:44.294Z,61.8
2022-07-25T03:34:44.206Z,61.9
2022-07-25T03:39:44.235Z,61.9
2022-07-25T03:44:44.222Z,62.1
2022-07-25T03:49:44.293Z,62.2
2022-07-25T03:54:44.296Z,62.3
2022-07-25T03:59:44.451Z,62.5
2022-07-25T04:04:44.614Z,62.6
2022-07-25T04:09:44.529Z,62.8
2022-07-25T04:14:44.226Z,63.0
2022-07-25T04:19:44.264Z,63.0
2022-07-25T04:24:44.212Z,63.2
2022-07-25T04:29:44.228Z,63.3
2022-07-25T04:34:44.230Z,63.4
2022-07-25T04:39:44.229Z,63.5
2022-07-25T04:44:44.141Z,63.4
2022-07-25T04:49:44.154Z,63.5
2022-07-25T04:55:06.605Z,63.5
2022-07-25T04:59:44.088Z,63.5
2022-07-25T05:04:45.549Z,63.6
2022-07-25T05:09:44.146Z,63.7
2022-07-25T05:14:44.185Z,63.7
2022-07-25T05:19:44.019Z,63.7
2022-07-25T05:24:44.122Z,63.6
2022-07-25T05:29:44.182Z,63.6
2022-07-25T05:34:44.050Z,63.5
2022-07-25T05:39:44.057Z,63.4
2022-07-25T05:44:44.150Z,63.4
2022-07-25T05:49:44.190Z,63.3
2022-07-25T05:54:44.055Z,63.2
2022-07-25T05:59:44.125Z,62.9
2022-07-25T06:04:44.096Z,62.7
2022-07-25T06:09:44.415Z,62.5
2022-07-25T06:14:44.051Z,62.2
2022-07-25T06:19:44.055Z,62.0
2022-07-25T06:24:44.511Z,61.8
2022-07-25T06:29:43.917Z,61.7
2022-07-25T06:34:43.993Z,61.4
2022-07-25T06:39:45.990Z,61.4
2022-07-25T06:44:43.900Z,61.2
2022-07-25T06:49:43.982Z,61.0
2022-07-25T06:54:43.985Z,60.9
2022-07-25T06:59:43.901Z,60.7
2022-07-25T07:04:43.948Z,60.3
2022-07-25T07:09:43.917Z,60.1
2022-07-25T07:14:44.245Z,59.8
2022-07-25T07:19:44.221Z,59.4
2022-07-25T07:24:45.134Z,59.1
2022-07-25T07:29:43.956Z,58.6
2022-07-25T07:34:44.049Z,58.4
2022-07-25T07:39:43.832Z,57.8
2022-07-25T07:44:43.936Z,57.5
2022-07-25T07:49:48.397Z,57.1
2022-07-25T07:54:43.995Z,56.5
2022-07-25T07:59:43.848Z,56.1
2022-07-25T08:04:43.931Z,55.6
2022-07-25T08:09:43.908Z,55.2
2022-07-25T08:14:44.073Z,54.6
2022-07-25T08:19:43.868Z,54.0
2022-07-25T08:24:43.893Z,53.8
2022-07-25T08:29:43.912Z,53.3
2022-07-25T08:34:43.860Z,52.8
2022-07-25T08:39:43.881Z,52.4
2022-07-25T08:44:43.851Z,51.9
2022-07-25T08:49:43.850Z,51.5
2022-07-25T08:54:43.734Z,51.4
2022-07-25T08:59:43.850Z,50.7
2022-07-25T09:04:43.867Z,50.3
2022-07-25T09:09:43.852Z,49.8
2022-07-25T09:14:43.841Z,49.4
2022-07-25T09:19:44.013Z,48.9
2022-07-25T09:24:43.854Z,48.4
2022-07-25T09:29:43.846Z,47.9
2022-07-25T09:34:43.792Z,47.4
2022-07-25T09:39:46.661Z,46.8
2022-07-25T09:44:43.757Z,46.3
2022-07-25T09:49:43.843Z,45.8
2022-07-25T09:54:43.817Z,45.2
2022-07-25T09:59:43.675Z,44.8
2022-07-25T10:04:43.760Z,44.2
2022-07-25T10:09:43.761Z,43.5
2022-07-25T10:14:43.771Z,43.0
2022-07-25T10:19:49.247Z,42.5
2022-07-25T10:24:43.853Z,42.1
2022-07-25T10:29:43.746Z,41.3
2022-07-25T10:34:43.581Z,40.8
2022-07-25T10:39:43.831Z,40.3
2022-07-25T10:44:43.700Z,39.9
2022-07-25T10:50:06.839Z,39.4
2022-07-25T10:54:43.649Z,39.0
2022-07-25T10:59:43.632Z,38.6
2022-07-25T11:04:43.834Z,38.2
2022-07-25T11:09:43.692Z,37.8
2022-07-25T11:14:43.533Z,37.5
2022-07-25T11:19:43.781Z,37.4
2022-07-25T11:24:43.871Z,37.1
2022-07-25T11:29:43.817Z,36.8
2022-07-25T11:34:43.518Z,36.1
2022-07-25T11:39:43.659Z,36.0
2022-07-25T11:44:47.588Z,35.5
2022-07-25T11:49:43.644Z,35.1
2022-07-25T11:54:43.501Z,35.0
2022-07-25T11:59:43.788Z,34.5
2022-07-25T12:04:44.057Z,34.2
2022-07-25T12:09:43.638Z,33.8
2022-07-25T12:14:43.447Z,33.6
2022-07-25T12:19:43.787Z,33.5
2022-07-25T12:24:43.686Z,33.2
2022-07-25T12:29:43.586Z,33.0
2022-07-25T12:34:43.730Z,32.9
2022-07-25T12:39:43.525Z,32.5
2022-07-25T12:44:43.587Z,32.3
2022-07-25T12:49:43.701Z,31.9
2022-07-25T12:54:43.417Z,31.6
2022-07-25T12:59:43.572Z,31.3
2022-07-25T13:04:44.266Z,31.0
2022-07-25T13:09:43.602Z,30.8
2022-07-25T13:14:43.758Z,30.5
2022-07-25T13:19:43.715Z,30.3
2022-07-25T13:24:46.195Z,30.3
2022-07-25T13:29:43.444Z,30.1
2022-07-25T13:34:43.402Z,30.2
2022-07-25T13:39:43.421Z,29.9
2022-07-25T13:44:43.505Z,29.7
2022-07-25T13:49:43.473Z,29.7
2022-07-25T13:54:43.505Z,29.6
2022-07-25T13:59:43.404Z,29.2
2022-07-25T14:04:43.525Z,29.0
2022-07-25T14:09:43.503Z,28.9
2022-07-25T14:14:43.501Z,28.6
2022-07-25T14:19:43.387Z,28.3
2022-07-25T14:24:43.476Z,28.1
2022-07-25T14:29:43.475Z,27.9
2022-07-25T14:34:43.459Z,27.7
2022-07-25T14:39:43.327Z,27.4
2022-07-25T14:44:43.574Z,27.3
2022-07-25T14:49:43.442Z,27.3
2022-07-25T14:54:43.460Z,27.3
2022-07-25T14:59:43.680Z,27.0
2022-07-25T15:04:43.456Z,26.9
2022-07-25T15:09:43.561Z,26.9
2022-07-25T15:14:43.292Z,26.8
2022-07-25T15:19:43.415Z,26.6
2022-07-25T15:25:04.334Z,26.4
2022-07-25T15:30:12.984Z,26.4
2022-07-25T15:35:12.928Z,26.2
2022-07-25T15:40:13.046Z,26.2
2022-07-25T15:45:32.696Z,26.0
2022-07-25T15:50:12.815Z,25.8
2022-07-25T15:55:12.790Z,25.5
2022-07-25T16:00:12.855Z,25.3
2022-07-25T16:05:12.808Z,25.3
2022-07-25T16:10:12.838Z,24.9
2022-07-25T16:15:13.159Z,24.6
2022-07-25T16:20:12.873Z,24.5
2022-07-25T16:25:12.786Z,24.2
2022-07-25T16:30:12.892Z,24.0
2022-07-25T16:35:12.870Z,24.3
2022-07-25T16:40:12.833Z,24.5
2022-07-25T16:45:12.702Z,24.9
2022-07-25T16:50:12.742Z,25.2
2022-07-25T16:55:12.759Z,25.3
2022-07-25T17:00:12.769Z,25.6
2022-07-25T17:05:12.818Z,25.8
2022-07-25T17:10:12.758Z,26.0
2022-07-25T17:15:12.717Z,26.3
2022-07-25T17:20:12.822Z,26.6
2022-07-25T17:25:12.656Z,26.8
2022-07-25T17:30:12.745Z,27.1
2022-07-25T17:35:12.707Z,27.3
2022-07-25T17:40:12.718Z,27.8
2022-07-25T17:45:12.761Z,28.3
2022-07-25T17:50:12.952Z,28.8
2022-07-25T17:55:12.793Z,29.2
2022-07-25T18:00:12.747Z,29.5
2022-07-25T18:05:12.864Z,29.9
2022-07-25T18:10:12.786Z,30.2
2022-07-25T18:15:12.766Z,30.6
2022-07-25T18:20:12.567Z,30.9
2022-07-25T18:25:13.148Z,31.2
2022-07-25T18:30:12.726Z,31.5
2022-07-25T18:35:12.769Z,31.9
2022-07-25T18:40:13.299Z,32.2
2022-07-25T18:45:12.691Z,32.6
2022-07-25T18:50:13.468Z,33.0
2022-07-25T18:55:13.115Z,33.4
2022-07-25T19:00:13.394Z,33.7
2022-07-25T19:05:12.803Z,34.1
2022-07-25T19:10:14.103Z,34.4
2022-07-25T19:15:13.187Z,34.8
2022-07-25T19:20:13.931Z,35.0
2022-07-25T19:25:17.902Z,35.2
2022-07-25T19:30:17.210Z,35.4
2022-07-25T19:35:12.518Z,35.6
2022-07-25T19:40:12.540Z,35.8
2022-07-25T19:45:12.511Z,36.0
2022-07-25T19:50:12.530Z,36.2
2022-07-25T19:55:12.546Z,36.4
2022-07-25T20:00:12.487Z,36.6
2022-07-25T20:05:12.493Z,36.8
2022-07-25T20:10:12.531Z,36.9
2022-07-25T20:15:12.454Z,37.1
2022-07-25T20:20:12.487Z,37.3
2022-07-25T20:25:12.458Z,37.5
2022-07-25T20:30:12.433Z,37.6
2022-07-25T20:35:12.434Z,37.8
2022-07-25T20:40:12.645Z,38.0
2022-07-25T20:45:12.392Z,38.1
2022-07-25T20:50:27.490Z,38.3
2022-07-25T20:55:27.407Z,38.5
2022-07-25T21:00:27.659Z,38.6
2022-07-25T21:05:27.450Z,38.8
2022-07-25T21:10:27.466Z,39.0
2022-07-25T21:15:27.435Z,39.1
2022-07-25T21:20:27.522Z,39.3
2022-07-25T21:25:27.390Z,39.5
2022-07-25T21:30:27.382Z,39.7
2022-07-25T21:35:27.358Z,39.9
2022-07-25T21:40:27.349Z,40.0
2022-07-25T21:45:27.404Z,40.3
2022-07-25T21:50:27.325Z,40.5
2022-07-25T21:55:27.343Z,40.7
2022-07-25T22:00:27.389Z,41.0
2022-07-25T22:05:27.606Z,41.3
2022-07-25T22:10:27.303Z,41.5
2022-07-25T22:15:27.370Z,41.7
2022-07-25T22:20:27.351Z,41.9
2022-07-25T22:25:27.353Z,42.1
2022-07-25T22:30:27.352Z,42.3
2022-07-25T22:35:27.534Z,42.5
2022-07-25T22:40:27.397Z,42.7
2022-07-25T22:45:27.417Z,43.0
2022-07-25T22:50:27.369Z,43.2
2022-07-25T22:55:27.621Z,43.4
2022-07-25T23:00:27.366Z,43.6
2022-07-25T23:05:27.361Z,43.8
2022-07-25T23:10:27.391Z,44.0
2022-07-25T23:15:28.615Z,44.2
2022-07-25T23:20:27.394Z,44.4
2022-07-25T23:25:27.297Z,44.6
2022-07-25T23:30:27.321Z,44.8
2022-07-25T23:35:27.145Z,45.0
2022-07-25T23:40:27.165Z,45.2
2022-07-25T23:45:28.031Z,45.4
2022-07-25T23:50:27.288Z,45.6
2022-07-25T23:55:27.257Z,45.7
